• Join FlightAware (Why Join?)
  • Login
  • US Flag 
04:35PM EDT


 

Airport Tracker/Info


-or-


 

Live Flight TrackerFlight Track Log ✈ UAL1021 ✈ 02-Jul-2013 ✈ KEWR - MPTO / PTY

Flight Track Log - Related Links

Times and Time Zones

All times are in EDT time to prevent confusion due to time zone crossing. See the UAL1021 flight status page for this flight to view local times or setup timezone preferences in your user account.

Time Position Orientation Groundspeed Altitude Reporting Facility
EDT Latitude Longitude Course Direction KTS MPH feet Rate Location/Type
05:40PM 40.6681 -74.1827 206° Southwest 115 132 700  Level FlightAware ADS-B
05:41PM 40.6460 -74.2040 216° Southwest 204 235 1,400 1,320 Climbing FlightAware
05:41PM 40.6440 -74.2160 258° West 216 249 1,700 2,640 Climbing FlightAware
05:42PM 40.6470 -74.2520 276° West 228 262 2,900 2,400 Climbing FlightAware
05:42PM 40.6460 -74.2870 268° West 228 262 3,900 2,100 Climbing FlightAware
05:42PM 40.6424 -74.3095 258° West 249 287 4,300 2,760 Climbing FlightAware ADS-B
05:43PM 40.6386 -74.3400 261° West 249 287 5,400 3,000 Climbing FlightAware ADS-B
05:43PM 40.6355 -74.3638 260° West 250 288 6,100 2,580 Climbing FlightAware ADS-B
05:43PM 40.6322 -74.3876 260° West 254 292 6,800 2,700 Climbing FlightAware ADS-B
05:43PM 40.6289 -74.4105 259° West 258 297 7,500 2,460 Climbing FlightAware ADS-B
05:44PM 40.6254 -74.4348 259° West 262 302 8,100 2,280 Climbing FlightAware ADS-B
05:44PM 40.6219 -74.4587 259° West 266 306 8,700 2,520 Climbing FlightAware ADS-B
05:44PM 40.6194 -74.4761 259° West 268 308 9,200 2,400 Climbing FlightAware ADS-B
05:44PM 40.6160 -74.5035 261° West 274 315 9,800 1,860 Climbing FlightAware ADS-B
05:45PM 40.6130 -74.5288 261° West 281 323 10,200 1,680 Climbing FlightAware ADS-B
05:45PM 40.6112 -74.5374 255° West 284 327 10,400 1,200 Climbing FlightAware ADS-B
05:45PM 40.6092 -74.5455 252° West 290 334 10,400 540 Level FlightAware ADS-B
05:45PM 40.6060 -74.5560 248° West 297 342 10,500 1,140 Climbing FlightAware ADS-B
05:45PM 40.5968 -74.5808 244° Southwest 307 353 10,800 1,380 Climbing FlightAware ADS-B
05:46PM 40.5743 -74.6331 240° Southwest 329 379 11,600 1,440 Climbing FlightAware ADS-B
05:46PM 40.5501 -74.6864 239° Southwest 350 403 12,300 1,920 Climbing FlightAware ADS-B
05:47PM 40.5224 -74.7422 237° Southwest 352 405 13,600 2,400 Climbing FlightAware ADS-B
05:47PM 40.5008 -74.7895 239° Southwest 354 407 14,600 2,280 Climbing FlightAware ADS-B
05:48PM 40.4729 -74.8536 240° Southwest 357 411 15,900 1,920 Climbing FlightAware ADS-B
05:48PM 40.4479 -74.9123 241° Southwest 369 425 16,700 1,620 Climbing FlightAware ADS-B
05:49PM 40.4256 -74.9597 238° Southwest 373 429 17,400 1,680 Climbing FlightAware ADS-B
05:49PM 40.4191 -74.9716 234° Southwest 373 429 17,600 2,280 Climbing FlightAware ADS-B
05:49PM 40.3978 -75.0038 229° Southwest 369 425 18,400 1,920 Climbing FlightAware ADS-B
05:50PM 40.3618 -75.0534 226° Southwest 376 433 19,200 1,380 Climbing FlightAware ADS-B
05:50PM 40.3344 -75.0909 226° Southwest 385 443 19,600 1,440 Climbing FlightAware ADS-B
05:50PM 40.2976 -75.1434 227° Southwest 389 448 20,500 1,560 Climbing FlightAware ADS-B
05:51PM 40.2606 -75.1965 228° Southwest 395 455 21,200 1,500 Climbing FlightAware ADS-B
05:51PM 40.2228 -75.2491 227° Southwest 397 457 22,000 1,440 Climbing FlightAware ADS-B
05:52PM 40.1833 -75.3034 226° Southwest 403 464 22,700 1,080 Climbing FlightAware ADS-B
05:52PM 40.1445 -75.3580 227° Southwest 413 475 23,100 1,080 Climbing FlightAware ADS-B
05:53PM 40.1056 -75.4128 227° Southwest 415 478 23,800 1,200 Climbing FlightAware ADS-B
05:53PM 40.0685 -75.4642 227° Southwest 421 484 24,300 1,020 Climbing FlightAware ADS-B
05:54PM 40.0280 -75.5198 226° Southwest 425 489 24,800 960 Climbing FlightAware ADS-B
05:54PM 39.9873 -75.5762 227° Southwest 431 496 25,300 1,260 Climbing FlightAware ADS-B
05:55PM 39.9458 -75.6336 227° Southwest 427 491 26,100 1,500 Climbing FlightAware ADS-B
05:55PM 39.9121 -75.6808 227° Southwest 425 489 26,700 1,080 Climbing FlightAware ADS-B
05:56PM 39.8708 -75.7450 230° Southwest 427 491 27,200 1,020 Climbing FlightAware ADS-B
05:56PM 39.8337 -75.8030 230° Southwest 426 490 27,800 960 Climbing FlightAware ADS-B
05:57PM 39.7968 -75.8639 232° Southwest 427 491 28,200 840 Climbing FlightAware ADS-B
05:57PM 39.7570 -75.9286 231° Southwest 429 494 28,700 1,140 Climbing FlightAware ADS-B
05:58PM 39.7179 -75.9904 231° Southwest 425 489 29,400 1,320 Climbing FlightAware ADS-B
05:58PM 39.6785 -76.0532 231° Southwest 420 483 30,100 1,080 Climbing FlightAware ADS-B
05:59PM 39.6392 -76.1149 230° Southwest 420 483 30,600 840 Climbing FlightAware ADS-B
06:00PM 39.5992 -76.1767 230° Southwest 421 484 31,000 720 Climbing FlightAware ADS-B
06:00PM 39.5577 -76.2419 230° Southwest 422 486 31,400 660 Climbing FlightAware ADS-B
06:01PM 39.5156 -76.3072 230° Southwest 424 488 31,800 480 Climbing FlightAware ADS-B
06:01PM 39.4710 -76.3740 229° Southwest 427 491 32,000 120 Climbing FlightAware ADS-B
06:02PM 39.4252 -76.4432 229° Southwest 422 486 32,000  Level FlightAware ADS-B
06:02PM 39.3880 -76.5040 232° Southwest 419 482 32,000  Level FlightAware ADS-B
06:03PM 39.3505 -76.5646 231° Southwest 418 481 32,000  Level FlightAware ADS-B
06:03PM 39.3136 -76.6229 231° Southwest 416 479 32,000  Level FlightAware ADS-B
06:04PM 39.2704 -76.6903 230° Southwest 416 479 32,000  Level FlightAware ADS-B
06:05PM 39.2319 -76.7504 230° Southwest 414 476 32,000  Level FlightAware ADS-B
06:05PM 39.1953 -76.8072 230° Southwest 413 475 32,000  Level FlightAware ADS-B
06:06PM 39.1584 -76.8646 230° Southwest 412 474 32,000  Level FlightAware ADS-B
06:06PM 39.1205 -76.9234 230° Southwest 408 470 32,000  Level FlightAware ADS-B
06:07PM 39.0827 -76.9822 230° Southwest 401 461 32,000  Level FlightAware ADS-B
06:07PM 39.0533 -77.0262 229° Southwest 398 458 32,000  Level FlightAware ADS-B
06:07PM 39.0305 -77.0536 223° Southwest 398 458 32,000  Level FlightAware ADS-B
06:08PM 38.9882 -77.1003 221° Southwest 397 457 32,000  Level FlightAware ADS-B
06:08PM 38.9425 -77.1505 221° Southwest 396 456 32,000  Level FlightAware ADS-B
06:09PM 38.8957 -77.2018 220° Southwest 395 455 32,000  Level FlightAware ADS-B
06:09PM 38.8538 -77.2478 221° Southwest 398 458 32,000  Level FlightAware ADS-B
06:10PM 38.7981 -77.3086 220° Southwest 399 459 32,000  Level FlightAware ADS-B
06:11PM 38.7300 -77.3820 220° Southwest 398 458 32,000  Level FlightAware
06:11PM 38.6862 -77.4304 221° Southwest 399 459 32,000  Level FlightAware ADS-B
06:12PM 38.6370 -77.4841 220° Southwest 399 459 32,000  Level FlightAware ADS-B
06:12PM 38.5943 -77.5304 220° Southwest 383 441 32,000  Level FlightAware ADS-B
06:13PM 38.5530 -77.5751 220° Southwest 381 438 32,000  Level FlightAware ADS-B
06:14PM 38.5129 -77.6184 220° Southwest 380 437 32,000  Level FlightAware ADS-B
06:14PM 38.4705 -77.6642 220° Southwest 379 436 32,000  Level FlightAware ADS-B
06:15PM 38.3960 -77.7450 220° Southwest 379 436 32,000  Level FlightAware
06:15PM 38.3714 -77.7711 220° Southwest 379 436 32,000  Level FlightAware ADS-B
06:16PM 38.3035 -77.8440 220° Southwest 379 436 32,000  Level FlightAware ADS-B
06:17PM 38.2380 -77.9140 220° Southwest 378 435 32,000  Level FlightAware
06:18PM 38.1790 -77.9770 220° Southwest 379 436 32,000  Level FlightAware
06:18PM 38.1350 -78.0240 220° Southwest 378 435 32,000  Level FlightAware
06:19PM 38.0750 -78.0880 220° Southwest 378 435 32,000  Level FlightAware
06:20PM 38.0170 -78.1400 215° Southwest 377 434 32,000  Level FlightAware
06:20PM 37.9900 -78.1460 190° South 381 438 32,000  Level FlightAware
06:20PM 37.9300 -78.1340 171° South 378 435 32,000  Level FlightAware
06:21PM 37.8440 -78.1150 170° South 379 436 32,000  Level FlightAware
06:22PM 37.7440 -78.0920 170° South 406 467 32,000  Level FlightAware
06:23PM 37.6660 -78.0750 170° South 419 482 32,000  Level FlightAware
06:23PM 37.5990 -78.0590 169° South 421 484 32,000  Level FlightAware
06:24PM 37.5230 -78.0430 171° South 422 486 32,000  Level FlightAware
06:25PM 37.4360 -78.0230 170° South 423 487 32,000  Level FlightAware
06:25PM 37.3760 -78.0100 170° South 423 487 32,000  Level FlightAware
06:26PM 37.2860 -77.9900 170° South 422 486 32,000  Level FlightAware
06:27PM 37.1910 -77.9680 170° South 422 486 32,000  Level FlightAware
06:28PM 37.1020 -77.9490 170° South 421 484 32,000  Level FlightAware
06:28PM 37.0380 -77.9350 170° South 421 484 32,000  Level FlightAware
06:30PM 36.8600 -77.8990 171° South 422 486 32,000  Level FlightAware
06:31PM 36.7590 -77.8790 171° South 424 488 32,000  Level FlightAware
06:31PM 36.6950 -77.8660 171° South 425 489 32,000  Level FlightAware
06:32PM 36.6090 -77.8490 171° South 426 490 32,000  Level FlightAware
06:33PM 36.5340 -77.8340 171° South 426 490 32,000  Level FlightAware
06:33PM 36.4480 -77.8170 171° South 428 493 32,000  Level FlightAware
06:34PM 36.3740 -77.8020 171° South 429 494 32,000  Level FlightAware
06:35PM 36.2830 -77.7840 171° South 430 495 32,000 240 Level FlightAware
06:36PM 36.1970 -77.7670 171° South 434 499 32,400 660 Climbing FlightAware
06:36PM 36.1170 -77.7520 171° South 433 498 33,000 780 Climbing FlightAware
06:37PM 36.0330 -77.7350 171° South 432 497 33,500 660 Climbing FlightAware
06:37PM 35.9670 -77.7220 171° South 432 497 33,900 360 Climbing FlightAware
06:38PM 35.8790 -77.7050 171° South 434 499 34,000 60 Climbing FlightAware
06:39PM 35.8130 -77.6920 171° South 434 499 34,000  Level FlightAware
06:39PM 35.7330 -77.6760 171° South 435 501 34,000  Level FlightAware
06:41PM 35.5620 -77.6430 171° South 436 502 34,000  Level FlightAware
06:42PM 35.5000 -77.6310 171° South 436 502 34,000  Level FlightAware
06:42PM 35.4370 -77.6190 171° South 436 502 34,000  Level FlightAware
06:43PM 35.3560 -77.6030 171° South 436 502 34,000  Level FlightAware
06:44PM 35.2950 -77.5910 171° South 436 502 34,000  Level FlightAware
06:44PM 35.2130 -77.5760 171° South 436 502 34,000  Level FlightAware
06:45PM 35.1320 -77.5600 171° South 436 502 34,000  Level FlightAware
06:46PM 35.0710 -77.5480 171° South 436 502 34,000  Level FlightAware
06:46PM 35.0100 -77.5360 171° South 436 502 34,000  Level FlightAware
06:47PM 34.9270 -77.5200 171° South 436 502 34,000  Level FlightAware
06:48PM 34.8650 -77.5080 171° South 436 502 34,000  Level FlightAware
06:49PM 34.7830 -77.4920 171° South 436 502 34,000  Level FlightAware
06:49PM 34.7260 -77.4810 171° South 436 502 34,000  Level FlightAware
06:50PM 34.6430 -77.4650 171° South 436 502 34,000  Level FlightAware
06:51PM 34.3475 -77.6139 171° South 443 510 34,000  Level Jacksonville Center
06:52PM 34.2147 -77.6294 186° South 443 510 34,000  Level Jacksonville Center
06:53PM 34.0964 -77.6442 186° South 457 526 34,000  Level Jacksonville Center
06:54PM 33.9761 -77.6564 185° South 457 526 34,000  Level Jacksonville Center
06:55PM 33.8514 -77.6714 186° South 457 526 34,000  Level Jacksonville Center
06:56PM 33.7292 -77.6886 187° South 457 526 34,000  Level Jacksonville Center
06:57PM 33.5897 -77.7019 185° South 457 526 34,000  Level Jacksonville Center
06:58PM 33.4694 -77.7139 185° South 452 520 34,000  Level Jacksonville Center
06:59PM 33.3467 -77.7286 186° South 447 514 34,000  Level Jacksonville Center
07:00PM 33.2222 -77.7456 186° South 447 514 34,000  Level Jacksonville Center
07:01PM 33.0997 -77.7578 185° South 447 514 34,000  Level Jacksonville Center
07:02PM 32.9750 -77.7722 186° South 447 514 34,000 -60 Level Jacksonville Center
07:03PM 32.8525 -77.7842 185° South 447 514 33,900 -60 Descending Jacksonville Center
07:04PM 32.7278 -77.7986 186° South 447 514 33,900  Level Jacksonville Center
07:05PM 32.6031 -77.8106 185° South 447 514 34,000  Climbing Jacksonville Center
07:06PM 32.4806 -77.8297 188° South 447 514 34,000  Level Jacksonville Center
07:07PM 32.3558 -77.8417 185° South 447 514 34,000  Level Jacksonville Center
07:08PM 32.2331 -77.8483 183° South 447 514 34,000 -60 Level Jacksonville Center
07:09PM 32.1075 -77.8431 178° South 447 514 33,900  Descending Jacksonville Center
07:10PM 31.9819 -77.8328 176° South 447 514 34,000  Climbing Jacksonville Center
07:11PM 31.8564 -77.8275 178° South 452 520 34,000  Level Jacksonville Center
07:12PM 31.7311 -77.8222 178° South 452 520 34,000  Level Jacksonville Center
07:13PM 31.6036 -77.8169 178° South 452 520 34,000  Level Jacksonville Center
07:14PM 31.4800 -77.8067 176° South 457 526 34,000  Level Jacksonville Center
07:15PM 31.3525 -77.8014 178° South 462 532 34,000 -60 Level Jacksonville Center
07:16PM 31.2247 -77.7936 177° South 462 532 33,900  Descending Jacksonville Center
07:17PM 31.1014 -77.7833 176° South 462 532 34,000  Climbing Jacksonville Center
07:18PM 30.9717 -77.7783 178° South 462 532 34,000  Level Jacksonville Center
07:19PM 30.8461 -77.7683 176° South 462 532 34,000 -60 Level Jacksonville Center
07:21PM 30.5839 -77.7617 179° South 453 521 33,900  Descending Miami Center
07:22PM 30.4569 -77.7533 177° South 467 537 34,000  Climbing Miami Center
07:23PM 30.3194 -77.7472 178° South 469 540 34,000  Level Miami Center
07:24PM 30.1983 -77.7464 180° South 458 527 34,000  Level Miami Center
07:25PM 30.0692 -77.7356 176° South 452 520 34,000  Level Miami Center
07:26PM 29.9419 -77.7322 179° South 463 533 34,000  Level Miami Center
07:27PM 29.8108 -77.7217 176° South 463 533 34,000  Level Miami Center
07:28PM 29.6836 -77.7158 178° South 463 533 34,000  Level Miami Center
07:29PM 29.5542 -77.7125 179° South 468 539 34,000 -60 Level Miami Center
07:30PM 29.4269 -77.7042 177° South 460 529 33,900  Descending Miami Center
07:31PM 29.3019 -77.7008 179° South 463 533 34,000  Climbing Miami Center
07:32PM 29.1747 -77.6928 177° South 457 526 34,000  Level Miami Center
07:33PM 29.0350 -77.6822 176° South 469 540 34,000  Level Miami Center
07:34PM 28.9097 -77.6789 179° South 469 540 34,000  Level Miami Center
07:35PM 28.7931 -77.6733 178° South 457 526 34,000 -60 Level Miami Center
07:36PM 28.6572 -77.6631 176° South 459 528 33,900  Descending Miami Center
07:37PM 28.5258 -77.6572 178° South 498 573 34,000  Climbing Miami Center
07:38PM 28.3861 -77.6492 177° South 491 565 34,000  Level Miami Center
07:39PM 28.2631 -77.6436 178° South 485 558 34,000  Level Miami Center
07:40PM 28.1336 -77.6358 177° South 470 541 34,000  Level Miami Center
07:41PM 28.0000 -77.6300 178° South 470 541 34,000 -60 Level Miami Center
07:42PM 27.8683 -77.6197 176° South 475 547 33,900 60 Descending Miami Center
07:47PM 27.1630 -77.5790 176° South 463 533 34,500 60 Climbing FlightAware
07:48PM 27.0850 -77.5740 177° South 463 533 34,500  Level FlightAware
07:49PM 27.0180 -77.5700 177° South 463 533 34,500  Level FlightAware
07:50PM 26.9350 -77.5650 177° South 463 533 34,500  Level FlightAware
07:50PM 26.8690 -77.5610 177° South 463 533 34,500  Level FlightAware
07:51PM 26.7820 -77.5560 177° South 463 533 34,500  Level FlightAware
07:52PM 26.6890 -77.5510 177° South 463 533 34,500  Level FlightAware
07:53PM 26.6020 -77.5460 177° South 463 533 34,500  Level FlightAware
07:53PM 26.5360 -77.5420 177° South 463 533 34,500  Level FlightAware
07:54PM 26.4470 -77.5370 177° South 463 533 34,500  Level FlightAware
07:55PM 26.3800 -77.5330 177° South 463 533 34,500 360 Level FlightAware
07:55PM 26.1570 -77.7880 226° Southwest 461 531 35,000 300 Climbing FlightAware
07:56PM 26.0860 -77.8040 191° South 461 531 35,000  Level FlightAware
07:57PM 25.9910 -77.8270 192° South 461 531 35,000  Level FlightAware
07:57PM 25.8930 -77.8500 192° South 457 526 35,000  Level FlightAware
07:58PM 25.7990 -77.8710 191° South 457 526 35,000  Level FlightAware
07:59PM 25.6870 -77.8970 192° South 459 528 35,000  Level FlightAware
08:00PM 25.5840 -77.8870 175° South 477 549 35,000  Level FlightAware
08:01PM 25.4750 -77.8600 167° South 476 548 35,000  Level FlightAware
08:01PM 25.3870 -77.8400 168° South 477 549 35,000  Level FlightAware
08:02PM 25.3020 -77.8190 167° South 477 549 35,000  Level FlightAware
08:03PM 25.1720 -77.7890 168° South 480 552 35,000  Level FlightAware
08:04PM 25.1180 -77.7760 168° South 480 552 35,000  Level FlightAware
08:04PM 25.0280 -77.7530 167° South 480 552 35,000  Level FlightAware
08:05PM 24.9610 -77.7360 167° South 480 552 35,000  Level FlightAware
08:06PM 24.8690 -77.7120 167° South 480 552 35,000  Level FlightAware
08:06PM 24.8030 -77.6960 168° South 480 552 35,000  Level FlightAware
08:07PM 24.7130 -77.6730 167° South 480 552 35,000  Level FlightAware
08:08PM 24.6430 -77.6550 167° South 480 552 35,000  Level FlightAware
08:08PM 24.5770 -77.6380 167° South 480 552 35,000  Level FlightAware
08:09PM 24.5090 -77.6210 167° South 480 552 35,000  Level FlightAware
08:10PM 24.4210 -77.5980 167° South 480 552 35,000  Level FlightAware
08:11PM 24.3510 -77.5810 168° South 480 552 35,000  Level FlightAware
08:11PM 24.2900 -77.5650 167° South 480 552 35,000  Level FlightAware
08:12PM 24.1980 -77.5420 167° South 480 552 35,000  Level FlightAware
08:13PM 24.1320 -77.5250 167° South 480 552 35,000  Level FlightAware
08:13PM 23.8450 -77.4450 167° South 485 558 35,000  Level Miami Center
08:14PM 23.7114 -77.4081 166° South 491 565 35,000  Level Miami Center
08:15PM 23.5800 -77.3714 166° South 491 565 35,000  Level Miami Center
08:17PM 23.4157 -77.3554 175° South  Level FlightAware Approximate
08:24PM 22.5530 -77.2720 175° South  Level FlightAware Approximate
08:25PM 22.4298 -77.2601 175° South  Level FlightAware Approximate
08:26PM 22.3066 -77.2483 175° South  Level FlightAware Approximate
08:27PM 22.1833 -77.2365 175° South  Level FlightAware Approximate
08:28PM 22.0601 -77.2248 175° South  Level FlightAware Approximate
08:29PM 21.9368 -77.2130 175° South  Level FlightAware Approximate
08:30PM 21.8136 -77.2013 175° South  Level FlightAware Approximate
08:31PM 21.6904 -77.1896 175° South  Level FlightAware Approximate
08:32PM 21.5671 -77.1779 175° South  Level FlightAware Approximate
08:33PM 21.4439 -77.1663 175° South  Level FlightAware Approximate
08:34PM 21.3206 -77.1546 175° South  Level FlightAware Approximate
08:35PM 21.1974 -77.1430 175° South  Level FlightAware Approximate
08:36PM 21.0741 -77.1314 175° South  Level FlightAware Approximate
08:37PM 20.9509 -77.1198 175° South  Level FlightAware Approximate
08:38PM 20.8276 -77.1082 175° South  Level FlightAware Approximate
08:39PM 20.7044 -77.0966 175° South  Level FlightAware Approximate
08:40PM 20.5811 -77.0851 175° South  Level FlightAware Approximate
08:41PM 20.4579 -77.0736 175° South  Level FlightAware Approximate
08:42PM 20.3342 -77.0614 174° South  Level FlightAware Approximate
08:43PM 20.2110 -77.0483 174° South  Level FlightAware Approximate
08:44PM 20.0879 -77.0352 174° South  Level FlightAware Approximate
08:45PM 19.9648 -77.0221 174° South  Level FlightAware Approximate
08:46PM 19.8417 -77.0090 174° South  Level FlightAware Approximate
08:47PM 19.7186 -76.9960 174° South  Level FlightAware Approximate
08:48PM 19.5955 -76.9829 174° South  Level FlightAware Approximate
08:49PM 19.4724 -76.9699 174° South  Level FlightAware Approximate
08:50PM 19.3493 -76.9569 174° South  Level FlightAware Approximate
08:51PM 19.2263 -76.9423 173° South  Level FlightAware Approximate
08:52PM 19.1036 -76.9257 173° South  Level FlightAware Approximate
08:53PM 18.9809 -76.9092 173° South  Level FlightAware Approximate
08:54PM 18.8581 -76.8926 173° South  Level FlightAware Approximate
08:55PM 18.7354 -76.8761 173° South  Level FlightAware Approximate
08:56PM 18.6127 -76.8597 173° South  Level FlightAware Approximate
08:57PM 18.4900 -76.8432 173° South  Level FlightAware Approximate
08:58PM 18.3672 -76.8268 173° South  Level FlightAware Approximate
08:59PM 18.2445 -76.8104 173° South  Level FlightAware Approximate
09:00PM 18.1217 -76.7940 173° South  Level FlightAware Approximate
09:01PM 17.9990 -76.7776 173° South  Level FlightAware Approximate
09:02PM 17.8777 -76.7791 197° South  Level FlightAware Approximate
09:03PM 17.7593 -76.8169 197° South  Level FlightAware Approximate
09:04PM 17.6409 -76.8546 197° South  Level FlightAware Approximate
09:05PM 17.5225 -76.8923 197° South  Level FlightAware Approximate
09:06PM 17.4041 -76.9299 197° South  Level FlightAware Approximate
09:07PM 17.2857 -76.9675 197° South  Level FlightAware Approximate
09:08PM 17.1673 -77.0050 197° South  Level FlightAware Approximate
09:09PM 17.0489 -77.0425 197° South  Level FlightAware Approximate
09:10PM 16.9304 -77.0799 197° South  Level FlightAware Approximate
09:11PM 16.8120 -77.1173 197° South  Level FlightAware Approximate
09:12PM 16.6936 -77.1546 197° South  Level FlightAware Approximate
09:13PM 16.5751 -77.1919 197° South  Level FlightAware Approximate
09:14PM 16.4566 -77.2291 197° South  Level FlightAware Approximate
09:15PM 16.3382 -77.2663 197° South  Level FlightAware Approximate
09:16PM 16.2197 -77.3035 197° South  Level FlightAware Approximate
09:17PM 16.1012 -77.3406 197° South  Level FlightAware Approximate
09:18PM 15.9828 -77.3776 197° South  Level FlightAware Approximate
09:19PM 15.8643 -77.4147 197° South  Level FlightAware Approximate
09:20PM 15.7458 -77.4516 197° South  Level FlightAware Approximate
09:21PM 15.6273 -77.4886 197° South  Level FlightAware Approximate
09:22PM 15.5088 -77.5255 197° South  Level FlightAware Approximate
09:23PM 15.3903 -77.5623 197° South  Level FlightAware Approximate
09:24PM 15.2717 -77.5991 197° South  Level FlightAware Approximate
09:25PM 15.1532 -77.6359 197° South  Level FlightAware Approximate
09:26PM 15.0347 -77.6726 197° South  Level FlightAware Approximate
09:27PM 14.9162 -77.7095 197° South  Level FlightAware Approximate
09:28PM 14.7977 -77.7465 197° South  Level FlightAware Approximate
09:29PM 14.6793 -77.7834 197° South  Level FlightAware Approximate
09:30PM 14.5608 -77.8203 197° South  Level FlightAware Approximate
09:31PM 14.4424 -77.8571 197° South  Level FlightAware Approximate
09:32PM 14.3239 -77.8939 197° South  Level FlightAware Approximate
09:33PM 14.2054 -77.9307 197° South  Level FlightAware Approximate
09:34PM 14.0869 -77.9674 197° South  Level FlightAware Approximate
09:35PM 13.9684 -78.0041 197° South  Level FlightAware Approximate
09:36PM 13.8499 -78.0407 197° South  Level FlightAware Approximate
09:37PM 13.7314 -78.0773 197° South  Level FlightAware Approximate
09:38PM 13.6129 -78.1139 197° South  Level FlightAware Approximate
09:39PM 13.4943 -78.1503 196° South  Level FlightAware Approximate
09:40PM 13.3757 -78.1863 196° South  Level FlightAware Approximate
09:41PM 13.2570 -78.2223 196° South  Level FlightAware Approximate
09:42PM 13.1384 -78.2583 196° South  Level FlightAware Approximate
09:43PM 13.0197 -78.2942 196° South  Level FlightAware Approximate
09:44PM 12.9010 -78.3301 196° South  Level FlightAware Approximate
09:45PM 12.7823 -78.3660 196° South  Level FlightAware Approximate
09:46PM 12.6637 -78.4019 196° South  Level FlightAware Approximate
09:47PM 12.5450 -78.4377 196° South  Level FlightAware Approximate
09:48PM 12.4263 -78.4734 196° South  Level FlightAware Approximate
09:49PM 12.3076 -78.5092 196° South  Level FlightAware Approximate
09:49PM 11.5960 -78.7200 196° South 462 532 35,000  Level FlightAware
09:50PM 12.1889 -78.5449 196° South  Level FlightAware Approximate
09:50PM 11.5110 -78.7390 192° South 460 529 35,000  Level FlightAware
09:50PM 11.4310 -78.7570 192° South 460 529 35,000  Level FlightAware
09:51PM 11.3450 -78.7760 192° South 459 528 35,000  Level FlightAware
09:52PM 11.2280 -78.8030 193° South 457 526 35,000  Level FlightAware
09:53PM 11.1470 -78.8210 192° South 448 516 35,000  Level FlightAware
09:53PM 11.0730 -78.8380 193° South 448 516 35,000  Level FlightAware
09:54PM 10.9800 -78.8580 192° South 448 516 35,000  Level FlightAware
09:55PM 10.8980 -78.8770 193° South 449 517 35,000  Level FlightAware
09:55PM 10.8160 -78.8950 192° South 457 526 35,000  Level FlightAware
09:56PM 10.7210 -78.9160 192° South 458 527 35,000  Level FlightAware
09:57PM 10.6280 -78.9370 193° South 460 529 35,000 -660 Level FlightAware
09:58PM 10.5440 -78.9560 193° South 457 526 34,100 -2,100 Descending FlightAware
09:58PM 10.4600 -78.9750 193° South 465 535 32,200 -2,760 Descending FlightAware
09:59PM 10.3740 -78.9940 192° South 464 534 30,400 -2,580 Descending FlightAware
09:59PM 10.3210 -79.0060 193° South 461 531 29,400 -2,340 Descending FlightAware
10:00PM 10.2090 -79.0310 192° South 442 509 27,300 -2,340 Descending FlightAware
10:01PM 10.1260 -79.0490 192° South 442 509 25,700 -2,280 Descending FlightAware
10:02PM 10.0380 -79.0690 193° South 432 497 24,100 -2,220 Descending FlightAware
10:02PM 9.9600 -79.0860 192° South 415 478 22,600 -2,220 Descending FlightAware
10:03PM 9.8730 -79.1060 193° South 410 472 21,000 -2,100 Descending FlightAware
10:04PM 9.7990 -79.1220 192° South 392 451 19,600 -2,040 Descending FlightAware
10:04PM 9.7370 -79.1360 193° South 392 451 18,500 -1,980 Descending FlightAware
10:05PM 9.6590 -79.1530 192° South 382 440 17,000 -2,100 Descending FlightAware
10:06PM 9.5900 -79.1690 193° South 366 421 15,600 -2,040 Descending FlightAware
10:06PM 9.5230 -79.1840 192° South 365 420 14,300 -1,920 Descending FlightAware
10:07PM 9.4480 -79.2000 192° South 349 402 12,900 -1,920 Descending FlightAware
10:08PM 9.3850 -79.2150 193° South 350 403 11,600 -1,740 Descending FlightAware
10:09PM 9.3140 -79.2300 192° South 327 376 10,500 -1,140 Descending FlightAware
10:09PM 9.2640 -79.2410 192° South 298 343 10,100 -600 Descending FlightAware
10:10PM 9.2300 -79.2480 191° South 280 322 9,900 -900 Descending FlightAware
10:10PM 9.2120 -79.2520 192° South 283 326 9,500 -1,680 Descending FlightAware
10:10PM 9.1800 -79.2600 194° South 278 320 8,800 -1,500 Descending FlightAware
10:11PM 9.1410 -79.2690 193° South 277 319 8,100 -1,440 Descending FlightAware
10:11PM 9.1080 -79.2760 192° South 278 320 7,500 -1,500 Descending FlightAware
10:11PM 9.1020 -79.2770 189° South 278 320 7,400 -1,500 Descending FlightAware
10:12PM 9.0560 -79.2870 192° South 278 320 6,500 -1,320 Descending FlightAware
10:12PM 9.0240 -79.2960 196° South 286 329 6,100 -480 Descending FlightAware
10:13PM 8.9910 -79.3120 206° Southwest 278 320 6,100  Level FlightAware
10:13PM 8.9810 -79.3180 211° Southwest 278 320 6,100 -120 Level FlightAware
10:14PM 8.9310 -79.3450 208° Southwest 276 318 6,000 -660 Descending FlightAware
10:14PM 8.8860 -79.3700 209° Southwest 264 304 5,200 -1,020 Descending FlightAware
10:15PM 8.8500 -79.4050 224° Southwest 4,400 -960 Descending FlightAware
10:18PM 9.0667 -79.3667 31° Northeast  Level FlightAware Approximate
10:18PM 8.9820 -79.4300 31° Northeast 185 213 1,600  Level FlightAware
10:19PM 9.0000 -79.4200 29° Northeast 184 212 1,200 -1,080 Descending FlightAware
10:19PM 9.0150 -79.4110 31° Northeast 168 193 900 -960 Descending FlightAware
10:19PM 9.0310 -79.4020 29° Northeast 147 169 500 -900 Descending FlightAware
10:20PM 9.0500 -79.3910 30° Northeast 154 177 100 -780 Descending FlightAware
10:20PM 9.0620 -79.3840 30° Northeast 69 79 -240 Descending FlightAware
10:20PM 9.0640 -79.3840 360° North 27 31  Level FlightAware
10:21PM 9.0650 -79.3840 360° North 20 23  Level FlightAware
10:21PM 9.0660 -79.3840 360° North 10 12  Level FlightAware
10:21PM 9.0670 -79.3840 360° North 5 6  Level FlightAware
10:22PM 9.0660 -79.3850 225° Southwest 4 5  Level FlightAware